sensor_id;sensor_type;location;lat;lon;timestamp;P1;durP1;ratioP1;P2;durP2;ratioP2
44588;SDS011;30298;52.562;13.414;2022-07-23T00:00:48;8.70;;;6.32;;
44588;SDS011;30298;52.562;13.414;2022-07-23T00:03:13;7.80;;;5.73;;
44588;SDS011;30298;52.562;13.414;2022-07-23T00:05:39;10.43;;;6.17;;
44588;SDS011;30298;52.562;13.414;2022-07-23T00:08:05;9.27;;;6.53;;
44588;SDS011;30298;52.562;13.414;2022-07-23T00:10:30;8.75;;;5.97;;
44588;SDS011;30298;52.562;13.414;2022-07-23T00:12:56;11.03;;;6.63;;
44588;SDS011;30298;52.562;13.414;2022-07-23T00:15:21;8.70;;;6.50;;
44588;SDS011;30298;52.562;13.414;2022-07-23T00:17:46;11.90;;;6.83;;
44588;SDS011;30298;52.562;13.414;2022-07-23T00:20:11;11.13;;;6.27;;
44588;SDS011;30298;52.562;13.414;2022-07-23T00:22:37;9.32;;;6.32;;
44588;SDS011;30298;52.562;13.414;2022-07-23T00:25:10;8.70;;;6.47;;
44588;SDS011;30298;52.562;13.414;2022-07-23T00:27:35;9.37;;;6.33;;
44588;SDS011;30298;52.562;13.414;2022-07-23T00:30:00;9.10;;;6.83;;
44588;SDS011;30298;52.562;13.414;2022-07-23T00:32:25;9.70;;;5.80;;
44588;SDS011;30298;52.562;13.414;2022-07-23T00:34:51;10.00;;;6.30;;
44588;SDS011;30298;52.562;13.414;2022-07-23T00:37:16;11.47;;;5.80;;
44588;SDS011;30298;52.562;13.414;2022-07-23T00:39:41;11.60;;;6.03;;
44588;SDS011;30298;52.562;13.414;2022-07-23T00:42:06;10.13;;;5.70;;
44588;SDS011;30298;52.562;13.414;2022-07-23T00:44:32;10.20;;;5.60;;
44588;SDS011;30298;52.562;13.414;2022-07-23T00:46:57;9.20;;;5.60;;
44588;SDS011;30298;52.562;13.414;2022-07-23T00:49:24;10.70;;;6.00;;
44588;SDS011;30298;52.562;13.414;2022-07-23T00:54:15;10.07;;;5.88;;
44588;SDS011;30298;52.562;13.414;2022-07-23T00:59:06;12.15;;;6.32;;
44588;SDS011;30298;52.562;13.414;2022-07-23T01:01:32;9.52;;;5.50;;
44588;SDS011;30298;52.562;13.414;2022-07-23T01:03:57;9.20;;;5.97;;
44588;SDS011;30298;52.562;13.414;2022-07-23T01:06:22;9.32;;;5.75;;
44588;SDS011;30298;52.562;13.414;2022-07-23T01:08:48;6.93;;;5.50;;
44588;SDS011;30298;52.562;13.414;2022-07-23T01:11:13;8.73;;;5.83;;
44588;SDS011;30298;52.562;13.414;2022-07-23T01:13:42;9.67;;;6.17;;
44588;SDS011;30298;52.562;13.414;2022-07-23T01:16:08;10.80;;;5.93;;
44588;SDS011;30298;52.562;13.414;2022-07-23T01:18:33;7.50;;;5.88;;
44588;SDS011;30298;52.562;13.414;2022-07-23T01:20:58;10.37;;;6.40;;
44588;SDS011;30298;52.562;13.414;2022-07-23T01:23:23;9.93;;;5.90;;
44588;SDS011;30298;52.562;13.414;2022-07-23T01:25:49;9.33;;;5.87;;
44588;SDS011;30298;52.562;13.414;2022-07-23T01:28:17;9.25;;;6.32;;
44588;SDS011;30298;52.562;13.414;2022-07-23T01:30:42;9.48;;;5.75;;
44588;SDS011;30298;52.562;13.414;2022-07-23T01:33:07;9.70;;;6.20;;
44588;SDS011;30298;52.562;13.414;2022-07-23T01:35:33;11.73;;;6.20;;
44588;SDS011;30298;52.562;13.414;2022-07-23T01:37:58;9.13;;;6.33;;
44588;SDS011;30298;52.562;13.414;2022-07-23T01:40:23;8.87;;;6.17;;
44588;SDS011;30298;52.562;13.414;2022-07-23T01:42:48;10.47;;;5.97;;
44588;SDS011;30298;52.562;13.414;2022-07-23T01:45:13;11.30;;;6.60;;
44588;SDS011;30298;52.562;13.414;2022-07-23T01:47:39;10.60;;;7.20;;
44588;SDS011;30298;52.562;13.414;2022-07-23T01:50:05;8.82;;;6.43;;
44588;SDS011;30298;52.562;13.414;2022-07-23T01:52:30;11.75;;;7.15;;
44588;SDS011;30298;52.562;13.414;2022-07-23T01:54:55;14.90;;;6.33;;
44588;SDS011;30298;52.562;13.414;2022-07-23T01:57:21;9.75;;;6.32;;
44588;SDS011;30298;52.562;13.414;2022-07-23T01:59:46;11.33;;;6.13;;
44588;SDS011;30298;52.562;13.414;2022-07-23T02:02:11;9.30;;;6.60;;
44588;SDS011;30298;52.562;13.414;2022-07-23T02:04:36;12.30;;;6.43;;
44588;SDS011;30298;52.562;13.414;2022-07-23T02:07:02;9.30;;;5.93;;
44588;SDS011;30298;52.562;13.414;2022-07-23T02:09:27;9.05;;;6.13;;
44588;SDS011;30298;52.562;13.414;2022-07-23T02:11:53;12.27;;;6.47;;
44588;SDS011;30298;52.562;13.414;2022-07-23T02:14:19;10.95;;;7.22;;
44588;SDS011;30298;52.562;13.414;2022-07-23T02:16:44;9.33;;;6.17;;
44588;SDS011;30298;52.562;13.414;2022-07-23T02:19:10;12.75;;;6.15;;
44588;SDS011;30298;52.562;13.414;2022-07-23T02:21:35;10.07;;;6.00;;
44588;SDS011;30298;52.562;13.414;2022-07-23T02:24:00;11.07;;;6.43;;
44588;SDS011;30298;52.562;13.414;2022-07-23T02:26:26;9.10;;;5.93;;
44588;SDS011;30298;52.562;13.414;2022-07-23T02:28:51;11.48;;;5.70;;
44588;SDS011;30298;52.562;13.414;2022-07-23T02:31:18;10.40;;;6.43;;
44588;SDS011;30298;52.562;13.414;2022-07-23T02:33:43;10.05;;;5.97;;
44588;SDS011;30298;52.562;13.414;2022-07-23T02:36:08;9.13;;;5.80;;
44588;SDS011;30298;52.562;13.414;2022-07-23T02:38:34;9.95;;;5.68;;
44588;SDS011;30298;52.562;13.414;2022-07-23T02:40:59;10.93;;;6.05;;
44588;SDS011;30298;52.562;13.414;2022-07-23T02:43:24;11.87;;;6.17;;
44588;SDS011;30298;52.562;13.414;2022-07-23T02:45:49;11.17;;;6.30;;
44588;SDS011;30298;52.562;13.414;2022-07-23T02:48:15;9.00;;;6.10;;
44588;SDS011;30298;52.562;13.414;2022-07-23T02:50:40;10.25;;;6.72;;
44588;SDS011;30298;52.562;13.414;2022-07-23T02:53:05;8.60;;;6.37;;
44588;SDS011;30298;52.562;13.414;2022-07-23T02:55:31;11.07;;;6.37;;
44588;SDS011;30298;52.562;13.414;2022-07-23T02:57:56;9.80;;;5.73;;
44588;SDS011;30298;52.562;13.414;2022-07-23T03:00:22;10.43;;;6.22;;
44588;SDS011;30298;52.562;13.414;2022-07-23T03:02:47;12.15;;;5.97;;
44588;SDS011;30298;52.562;13.414;2022-07-23T03:05:12;8.40;;;6.00;;
44588;SDS011;30298;52.562;13.414;2022-07-23T03:07:38;11.93;;;6.43;;
44588;SDS011;30298;52.562;13.414;2022-07-23T03:10:03;12.60;;;6.73;;
44588;SDS011;30298;52.562;13.414;2022-07-23T03:12:28;12.37;;;5.43;;
44588;SDS011;30298;52.562;13.414;2022-07-23T03:14:53;8.10;;;5.73;;
44588;SDS011;30298;52.562;13.414;2022-07-23T03:17:19;10.60;;;5.85;;
44588;SDS011;30298;52.562;13.414;2022-07-23T03:19:44;8.77;;;5.80;;
44588;SDS011;30298;52.562;13.414;2022-07-23T03:22:09;9.47;;;5.77;;
44588;SDS011;30298;52.562;13.414;2022-07-23T03:24:34;10.00;;;5.90;;
44588;SDS011;30298;52.562;13.414;2022-07-23T03:27:18;13.90;;;5.68;;
44588;SDS011;30298;52.562;13.414;2022-07-23T03:29:44;8.05;;;5.68;;
44588;SDS011;30298;52.562;13.414;2022-07-23T03:32:09;10.77;;;6.10;;
44588;SDS011;30298;52.562;13.414;2022-07-23T03:34:34;9.83;;;5.80;;
44588;SDS011;30298;52.562;13.414;2022-07-23T03:37:00;7.68;;;5.55;;
44588;SDS011;30298;52.562;13.414;2022-07-23T03:39:25;10.73;;;4.90;;
44588;SDS011;30298;52.562;13.414;2022-07-23T03:41:50;8.17;;;5.03;;
44588;SDS011;30298;52.562;13.414;2022-07-23T03:44:16;11.57;;;5.83;;
44588;SDS011;30298;52.562;13.414;2022-07-23T03:46:41;9.13;;;6.33;;
44588;SDS011;30298;52.562;13.414;2022-07-23T03:49:06;6.57;;;4.70;;
44588;SDS011;30298;52.562;13.414;2022-07-23T03:51:34;7.33;;;5.00;;
44588;SDS011;30298;52.562;13.414;2022-07-23T03:54:00;7.68;;;4.80;;
44588;SDS011;30298;52.562;13.414;2022-07-23T03:56:25;7.50;;;4.53;;
44588;SDS011;30298;52.562;13.414;2022-07-23T03:58:51;7.72;;;4.30;;
44588;SDS011;30298;52.562;13.414;2022-07-23T04:01:16;6.90;;;4.07;;
44588;SDS011;30298;52.562;13.414;2022-07-23T04:03:41;9.37;;;4.40;;
44588;SDS011;30298;52.562;13.414;2022-07-23T04:06:06;7.27;;;4.07;;
44588;SDS011;30298;52.562;13.414;2022-07-23T04:08:32;8.97;;;4.07;;
44588;SDS011;30298;52.562;13.414;2022-07-23T04:10:57;5.82;;;3.83;;
44588;SDS011;30298;52.562;13.414;2022-07-23T04:13:22;9.73;;;3.83;;
44588;SDS011;30298;52.562;13.414;2022-07-23T04:15:48;4.70;;;3.40;;
44588;SDS011;30298;52.562;13.414;2022-07-23T04:18:13;8.15;;;3.58;;
44588;SDS011;30298;52.562;13.414;2022-07-23T04:20:42;6.72;;;3.83;;
44588;SDS011;30298;52.562;13.414;2022-07-23T04:23:07;5.63;;;3.83;;
44588;SDS011;30298;52.562;13.414;2022-07-23T04:25:34;7.03;;;3.15;;
44588;SDS011;30298;52.562;13.414;2022-07-23T04:27:59;5.10;;;3.20;;
44588;SDS011;30298;52.562;13.414;2022-07-23T04:30:25;6.33;;;3.10;;
44588;SDS011;30298;52.562;13.414;2022-07-23T04:32:50;9.07;;;3.20;;
44588;SDS011;30298;52.562;13.414;2022-07-23T04:35:15;6.90;;;3.23;;
44588;SDS011;30298;52.562;13.414;2022-07-23T04:37:40;6.67;;;3.27;;
44588;SDS011;30298;52.562;13.414;2022-07-23T04:40:06;3.80;;;2.90;;
44588;SDS011;30298;52.562;13.414;2022-07-23T04:42:31;13.55;;;4.53;;
44588;SDS011;30298;52.562;13.414;2022-07-23T04:44:56;8.37;;;4.47;;
44588;SDS011;30298;52.562;13.414;2022-07-23T04:47:21;13.00;;;4.27;;
44588;SDS011;30298;52.562;13.414;2022-07-23T04:49:47;8.70;;;3.85;;
44588;SDS011;30298;52.562;13.414;2022-07-23T04:52:12;10.30;;;4.33;;
44588;SDS011;30298;52.562;13.414;2022-07-23T04:54:37;10.20;;;4.37;;
44588;SDS011;30298;52.562;13.414;2022-07-23T04:57:03;13.17;;;5.17;;
44588;SDS011;30298;52.562;13.414;2022-07-23T04:59:28;14.23;;;5.00;;
44588;SDS011;30298;52.562;13.414;2022-07-23T05:01:53;8.33;;;5.00;;
44588;SDS011;30298;52.562;13.414;2022-07-23T05:04:18;11.13;;;5.53;;
44588;SDS011;30298;52.562;13.414;2022-07-23T05:06:44;12.20;;;5.30;;
44588;SDS011;30298;52.562;13.414;2022-07-23T05:09:09;9.93;;;4.93;;
44588;SDS011;30298;52.562;13.414;2022-07-23T05:11:35;8.77;;;5.00;;
44588;SDS011;30298;52.562;13.414;2022-07-23T05:14:00;10.87;;;5.70;;
44588;SDS011;30298;52.562;13.414;2022-07-23T05:16:25;14.13;;;6.00;;
44588;SDS011;30298;52.562;13.414;2022-07-23T05:18:50;12.37;;;6.07;;
44588;SDS011;30298;52.562;13.414;2022-07-23T05:21:16;14.53;;;8.07;;
44588;SDS011;30298;52.562;13.414;2022-07-23T05:23:41;9.73;;;5.20;;
44588;SDS011;30298;52.562;13.414;2022-07-23T05:26:06;10.80;;;5.23;;
44588;SDS011;30298;52.562;13.414;2022-07-23T05:28:31;11.53;;;5.70;;
44588;SDS011;30298;52.562;13.414;2022-07-23T05:30:56;10.63;;;5.27;;
44588;SDS011;30298;52.562;13.414;2022-07-23T05:33:22;12.80;;;5.50;;
44588;SDS011;30298;52.562;13.414;2022-07-23T05:35:47;7.53;;;4.53;;
44588;SDS011;30298;52.562;13.414;2022-07-23T05:38:12;7.53;;;4.90;;
44588;SDS011;30298;52.562;13.414;2022-07-23T05:40:37;10.77;;;4.57;;
44588;SDS011;30298;52.562;13.414;2022-07-23T05:43:03;9.47;;;5.43;;
44588;SDS011;30298;52.562;13.414;2022-07-23T05:45:28;10.20;;;5.10;;
44588;SDS011;30298;52.562;13.414;2022-07-23T05:47:53;9.07;;;6.07;;
44588;SDS011;30298;52.562;13.414;2022-07-23T05:50:18;7.80;;;5.37;;
44588;SDS011;30298;52.562;13.414;2022-07-23T05:52:44;9.13;;;5.43;;
44588;SDS011;30298;52.562;13.414;2022-07-23T05:55:09;9.65;;;5.60;;
44588;SDS011;30298;52.562;13.414;2022-07-23T05:57:35;10.05;;;5.18;;
44588;SDS011;30298;52.562;13.414;2022-07-23T06:00:00;11.35;;;5.45;;
44588;SDS011;30298;52.562;13.414;2022-07-23T06:02:26;10.82;;;6.50;;
44588;SDS011;30298;52.562;13.414;2022-07-23T06:04:51;8.82;;;4.80;;
44588;SDS011;30298;52.562;13.414;2022-07-23T06:07:17;9.13;;;4.87;;
44588;SDS011;30298;52.562;13.414;2022-07-23T06:09:42;12.03;;;5.63;;
44588;SDS011;30298;52.562;13.414;2022-07-23T06:12:07;9.00;;;5.20;;
44588;SDS011;30298;52.562;13.414;2022-07-23T06:14:33;9.10;;;5.27;;
44588;SDS011;30298;52.562;13.414;2022-07-23T06:16:58;11.83;;;4.97;;
44588;SDS011;30298;52.562;13.414;2022-07-23T06:19:24;8.32;;;5.50;;
44588;SDS011;30298;52.562;13.414;2022-07-23T06:21:49;10.30;;;5.70;;
44588;SDS011;30298;52.562;13.414;2022-07-23T06:24:15;12.40;;;6.07;;
44588;SDS011;30298;52.562;13.414;2022-07-23T06:26:40;12.37;;;5.90;;
44588;SDS011;30298;52.562;13.414;2022-07-23T06:29:05;12.20;;;6.23;;
44588;SDS011;30298;52.562;13.414;2022-07-23T06:31:30;9.03;;;5.47;;
44588;SDS011;30298;52.562;13.414;2022-07-23T06:33:56;11.47;;;5.90;;
44588;SDS011;30298;52.562;13.414;2022-07-23T06:36:21;9.87;;;5.40;;
44588;SDS011;30298;52.562;13.414;2022-07-23T06:38:46;15.27;;;6.97;;
44588;SDS011;30298;52.562;13.414;2022-07-23T06:41:12;10.10;;;5.20;;
44588;SDS011;30298;52.562;13.414;2022-07-23T06:43:37;10.60;;;5.27;;
44588;SDS011;30298;52.562;13.414;2022-07-23T06:46:02;11.68;;;5.40;;
44588;SDS011;30298;52.562;13.414;2022-07-23T06:48:28;11.27;;;5.18;;
44588;SDS011;30298;52.562;13.414;2022-07-23T06:50:54;9.60;;;5.20;;
44588;SDS011;30298;52.562;13.414;2022-07-23T06:53:19;8.10;;;5.10;;
44588;SDS011;30298;52.562;13.414;2022-07-23T06:55:45;8.33;;;6.20;;
44588;SDS011;30298;52.562;13.414;2022-07-23T06:58:10;9.70;;;5.00;;
44588;SDS011;30298;52.562;13.414;2022-07-23T07:00:35;10.37;;;5.03;;
44588;SDS011;30298;52.562;13.414;2022-07-23T07:03:01;9.40;;;4.63;;
44588;SDS011;30298;52.562;13.414;2022-07-23T07:05:26;9.17;;;5.20;;
44588;SDS011;30298;52.562;13.414;2022-07-23T07:07:53;9.10;;;5.07;;
44588;SDS011;30298;52.562;13.414;2022-07-23T07:12:43;11.60;;;5.07;;
44588;SDS011;30298;52.562;13.414;2022-07-23T07:15:09;9.90;;;5.40;;
44588;SDS011;30298;52.562;13.414;2022-07-23T07:17:34;9.57;;;5.35;;
44588;SDS011;30298;52.562;13.414;2022-07-23T07:19:59;8.80;;;5.07;;
44588;SDS011;30298;52.562;13.414;2022-07-23T07:22:24;13.53;;;5.60;;
44588;SDS011;30298;52.562;13.414;2022-07-23T07:24:50;10.97;;;5.27;;
44588;SDS011;30298;52.562;13.414;2022-07-23T07:27:15;8.03;;;4.53;;
44588;SDS011;30298;52.562;13.414;2022-07-23T07:29:40;9.93;;;5.00;;
44588;SDS011;30298;52.562;13.414;2022-07-23T07:32:05;12.67;;;4.97;;
44588;SDS011;30298;52.562;13.414;2022-07-23T07:34:31;9.63;;;4.90;;
44588;SDS011;30298;52.562;13.414;2022-07-23T07:36:56;7.30;;;4.93;;
44588;SDS011;30298;52.562;13.414;2022-07-23T07:39:21;9.90;;;4.80;;
44588;SDS011;30298;52.562;13.414;2022-07-23T07:41:46;8.87;;;5.03;;
44588;SDS011;30298;52.562;13.414;2022-07-23T07:44:15;6.65;;;4.15;;
44588;SDS011;30298;52.562;13.414;2022-07-23T07:46:40;7.53;;;4.30;;
44588;SDS011;30298;52.562;13.414;2022-07-23T07:49:05;7.80;;;4.70;;
44588;SDS011;30298;52.562;13.414;2022-07-23T07:51:31;8.27;;;4.10;;
44588;SDS011;30298;52.562;13.414;2022-07-23T07:53:57;11.82;;;4.72;;
44588;SDS011;30298;52.562;13.414;2022-07-23T07:56:22;7.40;;;4.50;;
44588;SDS011;30298;52.562;13.414;2022-07-23T07:58:48;9.17;;;4.33;;
44588;SDS011;30298;52.562;13.414;2022-07-23T08:01:13;6.03;;;4.27;;
44588;SDS011;30298;52.562;13.414;2022-07-23T08:03:38;7.57;;;4.50;;
44588;SDS011;30298;52.562;13.414;2022-07-23T08:06:03;7.13;;;4.97;;
44588;SDS011;30298;52.562;13.414;2022-07-23T08:08:29;7.43;;;4.80;;
44588;SDS011;30298;52.562;13.414;2022-07-23T08:10:54;12.83;;;6.90;;
44588;SDS011;30298;52.562;13.414;2022-07-23T08:13:19;8.70;;;4.70;;
44588;SDS011;30298;52.562;13.414;2022-07-23T08:15:44;7.07;;;4.83;;
44588;SDS011;30298;52.562;13.414;2022-07-23T08:18:10;6.05;;;4.70;;
44588;SDS011;30298;52.562;13.414;2022-07-23T08:20:35;8.00;;;4.13;;
44588;SDS011;30298;52.562;13.414;2022-07-23T08:23:05;5.80;;;3.07;;
44588;SDS011;30298;52.562;13.414;2022-07-23T08:25:32;5.22;;;3.05;;
44588;SDS011;30298;52.562;13.414;2022-07-23T08:27:58;7.10;;;3.10;;
44588;SDS011;30298;52.562;13.414;2022-07-23T08:35:17;11.00;;;4.30;;
44588;SDS011;30298;52.562;13.414;2022-07-23T08:37:42;8.63;;;4.32;;
44588;SDS011;30298;52.562;13.414;2022-07-23T08:40:08;6.83;;;3.40;;
44588;SDS011;30298;52.562;13.414;2022-07-23T08:42:33;8.48;;;2.78;;
44588;SDS011;30298;52.562;13.414;2022-07-23T08:45:03;8.38;;;2.97;;
44588;SDS011;30298;52.562;13.414;2022-07-23T08:47:29;8.50;;;3.60;;
44588;SDS011;30298;52.562;13.414;2022-07-23T08:49:54;7.43;;;3.78;;
44588;SDS011;30298;52.562;13.414;2022-07-23T08:52:22;7.70;;;3.42;;
44588;SDS011;30298;52.562;13.414;2022-07-23T08:54:48;6.35;;;3.00;;
44588;SDS011;30298;52.562;13.414;2022-07-23T08:57:13;8.18;;;3.53;;
44588;SDS011;30298;52.562;13.414;2022-07-23T08:59:39;7.43;;;3.30;;
44588;SDS011;30298;52.562;13.414;2022-07-23T09:02:04;8.57;;;3.42;;
44588;SDS011;30298;52.562;13.414;2022-07-23T09:04:30;8.20;;;3.40;;
44588;SDS011;30298;52.562;13.414;2022-07-23T09:06:56;10.15;;;4.25;;
44588;SDS011;30298;52.562;13.414;2022-07-23T09:09:21;5.97;;;3.40;;
44588;SDS011;30298;52.562;13.414;2022-07-23T09:11:47;10.30;;;3.50;;
44588;SDS011;30298;52.562;13.414;2022-07-23T09:14:12;8.63;;;3.83;;
44588;SDS011;30298;52.562;13.414;2022-07-23T09:16:37;6.73;;;3.67;;
44588;SDS011;30298;52.562;13.414;2022-07-23T09:19:04;8.03;;;3.90;;
44588;SDS011;30298;52.562;13.414;2022-07-23T09:21:30;6.43;;;3.42;;
44588;SDS011;30298;52.562;13.414;2022-07-23T10:54:32;6.60;;;3.85;;
44588;SDS011;30298;52.562;13.414;2022-07-23T11:05:47;5.82;;;3.08;;
44588;SDS011;30298;52.562;13.414;2022-07-23T11:16:30;6.88;;;3.60;;
44588;SDS011;30298;52.562;13.414;2022-07-23T11:26:57;4.63;;;3.40;;
44588;SDS011;30298;52.562;13.414;2022-07-23T11:32:17;7.10;;;3.60;;
44588;SDS011;30298;52.562;13.414;2022-07-23T11:34:44;5.45;;;3.40;;
44588;SDS011;30298;52.562;13.414;2022-07-23T11:37:11;5.72;;;3.55;;
44588;SDS011;30298;52.562;13.414;2022-07-23T11:42:03;5.93;;;3.13;;
44588;SDS011;30298;52.562;13.414;2022-07-23T11:44:34;4.75;;;2.70;;
44588;SDS011;30298;52.562;13.414;2022-07-23T11:47:03;5.10;;;2.83;;
44588;SDS011;30298;52.562;13.414;2022-07-23T11:49:29;6.35;;;3.13;;
44588;SDS011;30298;52.562;13.414;2022-07-23T11:54:19;6.10;;;3.10;;
44588;SDS011;30298;52.562;13.414;2022-07-23T11:56:54;5.18;;;2.90;;
44588;SDS011;30298;52.562;13.414;2022-07-23T11:59:20;5.47;;;3.33;;
44588;SDS011;30298;52.562;13.414;2022-07-23T12:01:55;3.20;;;2.65;;
44588;SDS011;30298;52.562;13.414;2022-07-23T12:04:21;4.95;;;3.15;;
44588;SDS011;30298;52.562;13.414;2022-07-23T12:06:46;3.90;;;2.70;;
44588;SDS011;30298;52.562;13.414;2022-07-23T12:09:11;3.92;;;2.60;;
44588;SDS011;30298;52.562;13.414;2022-07-23T12:11:37;4.15;;;2.90;;
44588;SDS011;30298;52.562;13.414;2022-07-23T12:14:02;5.28;;;3.03;;
44588;SDS011;30298;52.562;13.414;2022-07-23T12:16:27;6.55;;;2.97;;
44588;SDS011;30298;52.562;13.414;2022-07-23T12:18:53;10.15;;;3.20;;
44588;SDS011;30298;52.562;13.414;2022-07-23T12:21:18;7.13;;;2.97;;
44588;SDS011;30298;52.562;13.414;2022-07-23T12:24:04;7.27;;;3.47;;
44588;SDS011;30298;52.562;13.414;2022-07-23T12:26:30;5.18;;;3.55;;
44588;SDS011;30298;52.562;13.414;2022-07-23T12:28:55;6.78;;;3.35;;
44588;SDS011;30298;52.562;13.414;2022-07-23T12:31:25;4.63;;;2.90;;
44588;SDS011;30298;52.562;13.414;2022-07-23T12:33:50;5.50;;;3.22;;
44588;SDS011;30298;52.562;13.414;2022-07-23T12:38:47;4.97;;;3.10;;
44588;SDS011;30298;52.562;13.414;2022-07-23T12:41:13;8.07;;;3.33;;
44588;SDS011;30298;52.562;13.414;2022-07-23T12:43:39;4.15;;;2.92;;
44588;SDS011;30298;52.562;13.414;2022-07-23T12:48:39;5.78;;;3.15;;
44588;SDS011;30298;52.562;13.414;2022-07-23T12:51:05;5.32;;;3.10;;
44588;SDS011;30298;52.562;13.414;2022-07-23T12:53:36;7.50;;;3.80;;
44588;SDS011;30298;52.562;13.414;2022-07-23T12:56:06;7.05;;;3.42;;
44588;SDS011;30298;52.562;13.414;2022-07-23T13:01:06;6.00;;;3.22;;
44588;SDS011;30298;52.562;13.414;2022-07-23T13:05:57;4.65;;;3.13;;
44588;SDS011;30298;52.562;13.414;2022-07-23T13:10:49;6.13;;;3.23;;
44588;SDS011;30298;52.562;13.414;2022-07-23T13:13:17;6.45;;;3.50;;
44588;SDS011;30298;52.562;13.414;2022-07-23T13:15:43;6.90;;;3.10;;
44588;SDS011;30298;52.562;13.414;2022-07-23T13:18:08;6.68;;;3.30;;
44588;SDS011;30298;52.562;13.414;2022-07-23T13:20:33;4.70;;;3.25;;
44588;SDS011;30298;52.562;13.414;2022-07-23T13:25:24;5.30;;;3.08;;
44588;SDS011;30298;52.562;13.414;2022-07-23T13:27:49;6.63;;;3.35;;
44588;SDS011;30298;52.562;13.414;2022-07-23T13:30:15;4.93;;;2.80;;
44588;SDS011;30298;52.562;13.414;2022-07-23T13:35:05;6.07;;;2.63;;
44588;SDS011;30298;52.562;13.414;2022-07-23T13:37:31;5.30;;;2.75;;
44588;SDS011;30298;52.562;13.414;2022-07-23T13:42:21;5.13;;;2.65;;
44588;SDS011;30298;52.562;13.414;2022-07-23T13:44:46;5.30;;;2.85;;
44588;SDS011;30298;52.562;13.414;2022-07-23T13:47:11;4.95;;;2.70;;
44588;SDS011;30298;52.562;13.414;2022-07-23T13:49:37;5.15;;;2.95;;
44588;SDS011;30298;52.562;13.414;2022-07-23T13:54:27;4.60;;;2.90;;
44588;SDS011;30298;52.562;13.414;2022-07-23T13:56:52;3.97;;;2.65;;
44588;SDS011;30298;52.562;13.414;2022-07-23T13:59:18;3.95;;;2.40;;
44588;SDS011;30298;52.562;13.414;2022-07-23T14:01:43;5.03;;;2.40;;
44588;SDS011;30298;52.562;13.414;2022-07-23T14:04:11;4.20;;;2.58;;
44588;SDS011;30298;52.562;13.414;2022-07-23T14:06:36;3.80;;;2.40;;
44588;SDS011;30298;52.562;13.414;2022-07-23T14:09:02;5.70;;;2.58;;
44588;SDS011;30298;52.562;13.414;2022-07-23T14:11:27;4.95;;;2.30;;
44588;SDS011;30298;52.562;13.414;2022-07-23T14:13:53;3.85;;;2.58;;
44588;SDS011;30298;52.562;13.414;2022-07-23T14:16:18;3.40;;;2.30;;
44588;SDS011;30298;52.562;13.414;2022-07-23T14:18:43;5.28;;;2.63;;
44588;SDS011;30298;52.562;13.414;2022-07-23T14:21:08;3.87;;;2.50;;
44588;SDS011;30298;52.562;13.414;2022-07-23T14:23:34;5.80;;;2.83;;
44588;SDS011;30298;52.562;13.414;2022-07-23T14:25:59;5.10;;;2.53;;
44588;SDS011;30298;52.562;13.414;2022-07-23T14:28:24;9.80;;;2.65;;
44588;SDS011;30298;52.562;13.414;2022-07-23T14:30:49;4.57;;;2.50;;
44588;SDS011;30298;52.562;13.414;2022-07-23T14:33:15;5.25;;;2.00;;
44588;SDS011;30298;52.562;13.414;2022-07-23T14:35:40;4.45;;;2.28;;
44588;SDS011;30298;52.562;13.414;2022-07-23T14:38:05;2.85;;;2.10;;
44588;SDS011;30298;52.562;13.414;2022-07-23T14:40:31;4.07;;;2.33;;
44588;SDS011;30298;52.562;13.414;2022-07-23T14:42:56;6.63;;;2.57;;
44588;SDS011;30298;52.562;13.414;2022-07-23T14:45:21;6.68;;;2.10;;
44588;SDS011;30298;52.562;13.414;2022-07-23T14:47:46;3.30;;;2.00;;
44588;SDS011;30298;52.562;13.414;2022-07-23T14:50:12;5.88;;;1.85;;
44588;SDS011;30298;52.562;13.414;2022-07-23T14:52:37;3.35;;;1.92;;
44588;SDS011;30298;52.562;13.414;2022-07-23T14:55:03;5.53;;;2.20;;
44588;SDS011;30298;52.562;13.414;2022-07-23T14:57:28;6.25;;;2.17;;
44588;SDS011;30298;52.562;13.414;2022-07-23T14:59:53;2.30;;;1.83;;
44588;SDS011;30298;52.562;13.414;2022-07-23T15:02:18;7.65;;;2.67;;
44588;SDS011;30298;52.562;13.414;2022-07-23T15:04:44;4.63;;;2.05;;
44588;SDS011;30298;52.562;13.414;2022-07-23T15:07:09;2.90;;;1.93;;
44588;SDS011;30298;52.562;13.414;2022-07-23T15:09:34;4.80;;;2.08;;
44588;SDS011;30298;52.562;13.414;2022-07-23T15:12:03;2.88;;;1.90;;
44588;SDS011;30298;52.562;13.414;2022-07-23T15:14:28;4.65;;;1.92;;
44588;SDS011;30298;52.562;13.414;2022-07-23T15:16:54;3.67;;;1.80;;
44588;SDS011;30298;52.562;13.414;2022-07-23T15:19:19;2.20;;;1.60;;
44588;SDS011;30298;52.562;13.414;2022-07-23T15:21:44;7.05;;;2.10;;
44588;SDS011;30298;52.562;13.414;2022-07-23T15:24:09;4.55;;;1.80;;
44588;SDS011;30298;52.562;13.414;2022-07-23T15:26:35;4.57;;;1.98;;
44588;SDS011;30298;52.562;13.414;2022-07-23T15:29:00;4.55;;;1.90;;
44588;SDS011;30298;52.562;13.414;2022-07-23T15:31:27;2.45;;;1.80;;
44588;SDS011;30298;52.562;13.414;2022-07-23T15:33:52;3.63;;;1.70;;
44588;SDS011;30298;52.562;13.414;2022-07-23T15:36:18;3.53;;;1.75;;
44588;SDS011;30298;52.562;13.414;2022-07-23T15:38:44;2.83;;;1.38;;
44588;SDS011;30298;52.562;13.414;2022-07-23T15:41:09;3.28;;;1.67;;
44588;SDS011;30298;52.562;13.414;2022-07-23T15:43:35;2.55;;;1.70;;
44588;SDS011;30298;52.562;13.414;2022-07-23T15:46:01;4.97;;;1.98;;
44588;SDS011;30298;52.562;13.414;2022-07-23T15:48:26;2.92;;;1.58;;
44588;SDS011;30298;52.562;13.414;2022-07-23T15:50:52;5.68;;;1.90;;
44588;SDS011;30298;52.562;13.414;2022-07-23T15:53:17;4.43;;;1.88;;
44588;SDS011;30298;52.562;13.414;2022-07-23T15:55:43;2.28;;;1.70;;
44588;SDS011;30298;52.562;13.414;2022-07-23T15:58:09;2.72;;;1.83;;
44588;SDS011;30298;52.562;13.414;2022-07-23T16:00:35;4.13;;;1.92;;
44588;SDS011;30298;52.562;13.414;2022-07-23T16:03:00;2.45;;;1.80;;
44588;SDS011;30298;52.562;13.414;2022-07-23T16:05:25;3.65;;;1.60;;
44588;SDS011;30298;52.562;13.414;2022-07-23T16:07:51;3.55;;;1.70;;
44588;SDS011;30298;52.562;13.414;2022-07-23T16:10:16;2.78;;;1.60;;
44588;SDS011;30298;52.562;13.414;2022-07-23T16:12:41;2.22;;;1.50;;
44588;SDS011;30298;52.562;13.414;2022-07-23T16:17:32;3.73;;;1.50;;
44588;SDS011;30298;52.562;13.414;2022-07-23T16:20:00;3.55;;;1.83;;
44588;SDS011;30298;52.562;13.414;2022-07-23T16:22:26;7.93;;;2.25;;
44588;SDS011;30298;52.562;13.414;2022-07-23T16:24:52;2.55;;;1.75;;
44588;SDS011;30298;52.562;13.414;2022-07-23T16:27:17;3.15;;;1.88;;
44588;SDS011;30298;52.562;13.414;2022-07-23T16:29:42;3.55;;;1.50;;
44588;SDS011;30298;52.562;13.414;2022-07-23T16:32:08;2.75;;;1.70;;
44588;SDS011;30298;52.562;13.414;2022-07-23T16:34:33;3.05;;;1.75;;
44588;SDS011;30298;52.562;13.414;2022-07-23T16:36:59;2.70;;;1.65;;
44588;SDS011;30298;52.562;13.414;2022-07-23T16:39:24;3.95;;;1.88;;
44588;SDS011;30298;52.562;13.414;2022-07-23T16:41:50;3.10;;;2.10;;
44588;SDS011;30298;52.562;13.414;2022-07-23T16:46:40;3.78;;;1.50;;
44588;SDS011;30298;52.562;13.414;2022-07-23T16:51:30;3.78;;;1.58;;
44588;SDS011;30298;52.562;13.414;2022-07-23T16:53:56;3.25;;;2.00;;
44588;SDS011;30298;52.562;13.414;2022-07-23T16:58:47;3.53;;;1.70;;
44588;SDS011;30298;52.562;13.414;2022-07-23T17:01:12;3.38;;;1.65;;
44588;SDS011;30298;52.562;13.414;2022-07-23T17:03:38;3.15;;;1.70;;
44588;SDS011;30298;52.562;13.414;2022-07-23T17:08:28;4.35;;;1.80;;
44588;SDS011;30298;52.562;13.414;2022-07-23T17:13:19;5.50;;;2.27;;